Terminal Aerodrome Forecast
Issued by NWS

Home | Current Version | Previous Version | Text Only | Print | Product List | Glossary On
Versions: 1 2 3 4 5 6 7 8 9 10 11 12 13 14 15 16 17 18
000
FTUS45 KBOI 181140
TAFMYL
TAF
KMYL 181140Z 1812/1912 VRB06KT P6SM BKN050 OVC100
     FM181800 17010G16KT P6SM -SHRA OVC015
     FM190100 VRB06KT 1/2SM SHSN OVC004
     FM190600 VRB06KT 1SM -SHSN BR OVC004=

USA.gov is the U.S. government's official web portal to all federal, state and local government web resources and services.